sensor_id;sensor_type;location;lat;lon;timestamp;temperature;humidity
4826;DHT22;2427;50.934;6.776;2023-06-22T00:01:58;22.70;99.90
4826;DHT22;2427;50.934;6.776;2023-06-22T00:04:24;22.70;99.90
4826;DHT22;2427;50.934;6.776;2023-06-22T00:06:50;22.70;99.90
4826;DHT22;2427;50.934;6.776;2023-06-22T00:09:16;22.80;99.90
4826;DHT22;2427;50.934;6.776;2023-06-22T00:11:41;22.80;99.90
4826;DHT22;2427;50.934;6.776;2023-06-22T00:14:07;22.80;99.90
4826;DHT22;2427;50.934;6.776;2023-06-22T00:16:33;22.80;99.90
4826;DHT22;2427;50.934;6.776;2023-06-22T00:18:59;22.80;99.90
4826;DHT22;2427;50.934;6.776;2023-06-22T00:21:26;22.80;99.90
4826;DHT22;2427;50.934;6.776;2023-06-22T00:23:52;22.80;99.90
4826;DHT22;2427;50.934;6.776;2023-06-22T00:26:18;22.70;99.90
4826;DHT22;2427;50.934;6.776;2023-06-22T00:28:43;22.70;99.90
4826;DHT22;2427;50.934;6.776;2023-06-22T00:31:09;22.70;99.90
4826;DHT22;2427;50.934;6.776;2023-06-22T00:33:34;22.70;99.90
4826;DHT22;2427;50.934;6.776;2023-06-22T00:36:00;22.70;99.90
4826;DHT22;2427;50.934;6.776;2023-06-22T00:38:26;22.70;99.90
4826;DHT22;2427;50.934;6.776;2023-06-22T00:40:52;22.70;99.90
4826;DHT22;2427;50.934;6.776;2023-06-22T00:43:17;22.70;99.90
4826;DHT22;2427;50.934;6.776;2023-06-22T00:45:43;22.70;99.90
4826;DHT22;2427;50.934;6.776;2023-06-22T00:48:09;22.60;99.90
4826;DHT22;2427;50.934;6.776;2023-06-22T00:50:35;22.60;99.90
4826;DHT22;2427;50.934;6.776;2023-06-22T00:53:03;22.60;99.90
4826;DHT22;2427;50.934;6.776;2023-06-22T00:55:43;22.60;99.90
4826;DHT22;2427;50.934;6.776;2023-06-22T00:58:09;22.60;99.90
4826;DHT22;2427;50.934;6.776;2023-06-22T01:14:20;22.50;99.90
4826;DHT22;2427;50.934;6.776;2023-06-22T01:16:48;22.50;99.90
4826;DHT22;2427;50.934;6.776;2023-06-22T01:22:01;22.40;99.90
4826;DHT22;2427;50.934;6.776;2023-06-22T01:24:33;22.40;99.90
4826;DHT22;2427;50.934;6.776;2023-06-22T01:27:12;22.40;99.90
4826;DHT22;2427;50.934;6.776;2023-06-22T01:29:50;22.40;99.90
4826;DHT22;2427;50.934;6.776;2023-06-22T01:32:17;22.40;99.90
4826;DHT22;2427;50.934;6.776;2023-06-22T01:34:43;22.30;99.90
4826;DHT22;2427;50.934;6.776;2023-06-22T01:37:09;22.30;99.90
4826;DHT22;2427;50.934;6.776;2023-06-22T01:39:35;22.30;99.90
4826;DHT22;2427;50.934;6.776;2023-06-22T01:42:02;22.30;99.90
4826;DHT22;2427;50.934;6.776;2023-06-22T01:44:28;22.30;99.90
4826;DHT22;2427;50.934;6.776;2023-06-22T01:46:54;22.30;99.90
4826;DHT22;2427;50.934;6.776;2023-06-22T01:49:20;22.30;99.90
4826;DHT22;2427;50.934;6.776;2023-06-22T01:51:45;22.30;99.90
4826;DHT22;2427;50.934;6.776;2023-06-22T01:54:11;22.30;99.90
4826;DHT22;2427;50.934;6.776;2023-06-22T01:56:36;22.30;99.90
4826;DHT22;2427;50.934;6.776;2023-06-22T02:01:42;22.20;99.90
4826;DHT22;2427;50.934;6.776;2023-06-22T02:04:34;22.20;99.90
4826;DHT22;2427;50.934;6.776;2023-06-22T02:07:05;22.20;99.90
4826;DHT22;2427;50.934;6.776;2023-06-22T02:09:35;22.20;99.90
4826;DHT22;2427;50.934;6.776;2023-06-22T02:12:03;22.20;99.90
4826;DHT22;2427;50.934;6.776;2023-06-22T02:14:30;22.20;99.90
4826;DHT22;2427;50.934;6.776;2023-06-22T02:16:56;22.20;99.90
4826;DHT22;2427;50.934;6.776;2023-06-22T02:19:24;22.20;99.90
4826;DHT22;2427;50.934;6.776;2023-06-22T02:21:51;22.10;99.90
4826;DHT22;2427;50.934;6.776;2023-06-22T02:24:16;22.10;99.90
4826;DHT22;2427;50.934;6.776;2023-06-22T02:26:43;22.10;99.90
4826;DHT22;2427;50.934;6.776;2023-06-22T02:29:10;22.00;99.90
4826;DHT22;2427;50.934;6.776;2023-06-22T02:31:36;22.10;99.90
4826;DHT22;2427;50.934;6.776;2023-06-22T02:34:01;22.00;99.90
4826;DHT22;2427;50.934;6.776;2023-06-22T02:36:27;22.00;99.90
4826;DHT22;2427;50.934;6.776;2023-06-22T02:38:55;22.00;99.90
4826;DHT22;2427;50.934;6.776;2023-06-22T02:41:26;22.00;99.90
4826;DHT22;2427;50.934;6.776;2023-06-22T02:43:52;22.00;99.90
4826;DHT22;2427;50.934;6.776;2023-06-22T02:46:17;21.90;99.90
4826;DHT22;2427;50.934;6.776;2023-06-22T02:48:43;21.90;99.90
4826;DHT22;2427;50.934;6.776;2023-06-22T02:51:08;21.90;99.90
4826;DHT22;2427;50.934;6.776;2023-06-22T02:53:34;21.90;99.90
4826;DHT22;2427;50.934;6.776;2023-06-22T02:56:02;21.90;99.90
4826;DHT22;2427;50.934;6.776;2023-06-22T02:58:31;21.90;99.90
4826;DHT22;2427;50.934;6.776;2023-06-22T03:00:58;21.90;99.90
4826;DHT22;2427;50.934;6.776;2023-06-22T03:03:30;21.80;99.90
4826;DHT22;2427;50.934;6.776;2023-06-22T03:05:55;21.80;99.90
4826;DHT22;2427;50.934;6.776;2023-06-22T03:08:21;21.90;99.90
4826;DHT22;2427;50.934;6.776;2023-06-22T03:10:46;21.90;99.90
4826;DHT22;2427;50.934;6.776;2023-06-22T03:13:12;21.80;99.90
4826;DHT22;2427;50.934;6.776;2023-06-22T03:15:37;21.80;99.90
4826;DHT22;2427;50.934;6.776;2023-06-22T03:18:03;21.80;99.90
4826;DHT22;2427;50.934;6.776;2023-06-22T03:20:28;21.70;99.90
4826;DHT22;2427;50.934;6.776;2023-06-22T03:22:58;21.70;99.90
4826;DHT22;2427;50.934;6.776;2023-06-22T03:25:24;21.70;99.90
4826;DHT22;2427;50.934;6.776;2023-06-22T03:27:50;21.70;99.90
4826;DHT22;2427;50.934;6.776;2023-06-22T03:30:15;21.70;99.90
4826;DHT22;2427;50.934;6.776;2023-06-22T03:32:41;21.70;99.90
4826;DHT22;2427;50.934;6.776;2023-06-22T03:35:08;21.70;99.90
4826;DHT22;2427;50.934;6.776;2023-06-22T03:37:34;21.60;99.90
4826;DHT22;2427;50.934;6.776;2023-06-22T03:39:59;21.60;99.90
4826;DHT22;2427;50.934;6.776;2023-06-22T03:42:26;21.50;99.90
4826;DHT22;2427;50.934;6.776;2023-06-22T03:44:51;21.50;99.90
4826;DHT22;2427;50.934;6.776;2023-06-22T03:47:17;21.50;99.90
4826;DHT22;2427;50.934;6.776;2023-06-22T03:49:43;21.40;99.90
4826;DHT22;2427;50.934;6.776;2023-06-22T03:52:08;21.30;99.90
4826;DHT22;2427;50.934;6.776;2023-06-22T03:54:36;21.20;99.90
4826;DHT22;2427;50.934;6.776;2023-06-22T03:57:01;21.20;99.90
4826;DHT22;2427;50.934;6.776;2023-06-22T03:59:27;21.20;99.90
4826;DHT22;2427;50.934;6.776;2023-06-22T04:01:53;21.20;99.90
4826;DHT22;2427;50.934;6.776;2023-06-22T04:04:18;21.20;99.90
4826;DHT22;2427;50.934;6.776;2023-06-22T04:06:44;21.20;99.90
4826;DHT22;2427;50.934;6.776;2023-06-22T04:09:10;21.20;99.90
4826;DHT22;2427;50.934;6.776;2023-06-22T04:11:36;21.20;99.90
4826;DHT22;2427;50.934;6.776;2023-06-22T04:14:01;21.20;99.90
4826;DHT22;2427;50.934;6.776;2023-06-22T04:16:27;21.30;99.90
4826;DHT22;2427;50.934;6.776;2023-06-22T04:18:53;21.30;99.90
4826;DHT22;2427;50.934;6.776;2023-06-22T04:21:18;21.40;99.90
4826;DHT22;2427;50.934;6.776;2023-06-22T04:23:45;21.40;99.90
4826;DHT22;2427;50.934;6.776;2023-06-22T04:26:12;21.40;99.90
4826;DHT22;2427;50.934;6.776;2023-06-22T04:28:37;21.40;99.90
4826;DHT22;2427;50.934;6.776;2023-06-22T04:31:03;21.50;99.90
4826;DHT22;2427;50.934;6.776;2023-06-22T04:33:29;21.50;99.90
4826;DHT22;2427;50.934;6.776;2023-06-22T04:35:55;21.60;99.90
4826;DHT22;2427;50.934;6.776;2023-06-22T04:38:23;21.60;99.90
4826;DHT22;2427;50.934;6.776;2023-06-22T04:40:49;21.60;99.90
4826;DHT22;2427;50.934;6.776;2023-06-22T04:43:14;21.60;99.90
4826;DHT22;2427;50.934;6.776;2023-06-22T04:45:40;21.60;99.90
4826;DHT22;2427;50.934;6.776;2023-06-22T04:48:06;21.70;99.90
4826;DHT22;2427;50.934;6.776;2023-06-22T04:50:31;21.70;99.90
4826;DHT22;2427;50.934;6.776;2023-06-22T04:52:57;21.60;99.90
4826;DHT22;2427;50.934;6.776;2023-06-22T04:55:23;21.60;99.90
4826;DHT22;2427;50.934;6.776;2023-06-22T04:57:51;21.60;99.90
4826;DHT22;2427;50.934;6.776;2023-06-22T05:00:20;21.60;99.90
4826;DHT22;2427;50.934;6.776;2023-06-22T05:02:47;21.70;99.90
4826;DHT22;2427;50.934;6.776;2023-06-22T05:05:13;21.70;99.90
4826;DHT22;2427;50.934;6.776;2023-06-22T05:07:42;21.70;99.90
4826;DHT22;2427;50.934;6.776;2023-06-22T05:10:10;21.80;99.90
4826;DHT22;2427;50.934;6.776;2023-06-22T05:12:36;21.80;99.90
4826;DHT22;2427;50.934;6.776;2023-06-22T05:15:02;21.80;99.90
4826;DHT22;2427;50.934;6.776;2023-06-22T05:17:28;21.80;99.90
4826;DHT22;2427;50.934;6.776;2023-06-22T05:19:53;21.80;99.90
4826;DHT22;2427;50.934;6.776;2023-06-22T05:22:20;21.80;99.90
4826;DHT22;2427;50.934;6.776;2023-06-22T05:24:46;21.80;99.90
4826;DHT22;2427;50.934;6.776;2023-06-22T05:27:12;21.80;99.90
4826;DHT22;2427;50.934;6.776;2023-06-22T05:29:38;21.80;99.90
4826;DHT22;2427;50.934;6.776;2023-06-22T05:32:03;21.80;99.90
4826;DHT22;2427;50.934;6.776;2023-06-22T05:34:29;21.80;99.90
4826;DHT22;2427;50.934;6.776;2023-06-22T05:36:55;21.90;99.90
4826;DHT22;2427;50.934;6.776;2023-06-22T05:39:21;21.90;99.90
4826;DHT22;2427;50.934;6.776;2023-06-22T05:41:46;22.00;99.90
4826;DHT22;2427;50.934;6.776;2023-06-22T05:44:12;22.00;99.90
4826;DHT22;2427;50.934;6.776;2023-06-22T05:46:42;22.10;99.90
4826;DHT22;2427;50.934;6.776;2023-06-22T05:49:10;22.20;99.90
4826;DHT22;2427;50.934;6.776;2023-06-22T05:51:36;22.20;99.90
4826;DHT22;2427;50.934;6.776;2023-06-22T05:54:02;22.20;99.90
4826;DHT22;2427;50.934;6.776;2023-06-22T05:56:27;22.30;99.90
4826;DHT22;2427;50.934;6.776;2023-06-22T05:58:53;22.30;99.90
4826;DHT22;2427;50.934;6.776;2023-06-22T06:01:19;22.30;99.90
4826;DHT22;2427;50.934;6.776;2023-06-22T06:03:44;22.40;99.90
4826;DHT22;2427;50.934;6.776;2023-06-22T06:06:10;22.40;99.90
4826;DHT22;2427;50.934;6.776;2023-06-22T06:08:39;22.50;99.90
4826;DHT22;2427;50.934;6.776;2023-06-22T06:11:05;22.60;99.90
4826;DHT22;2427;50.934;6.776;2023-06-22T06:13:30;22.70;99.90
4826;DHT22;2427;50.934;6.776;2023-06-22T06:15:56;22.80;99.90
4826;DHT22;2427;50.934;6.776;2023-06-22T06:18:22;23.00;99.90
4826;DHT22;2427;50.934;6.776;2023-06-22T06:20:48;23.20;99.90
4826;DHT22;2427;50.934;6.776;2023-06-22T06:23:13;23.30;99.90
4826;DHT22;2427;50.934;6.776;2023-06-22T06:25:39;23.40;99.90
4826;DHT22;2427;50.934;6.776;2023-06-22T06:28:05;23.50;99.90
4826;DHT22;2427;50.934;6.776;2023-06-22T06:30:30;23.60;99.90
4826;DHT22;2427;50.934;6.776;2023-06-22T06:32:56;23.60;99.90
4826;DHT22;2427;50.934;6.776;2023-06-22T06:35:22;23.70;99.90
4826;DHT22;2427;50.934;6.776;2023-06-22T06:37:49;23.80;99.90
4826;DHT22;2427;50.934;6.776;2023-06-22T06:40:17;23.80;99.90
4826;DHT22;2427;50.934;6.776;2023-06-22T06:42:44;23.80;99.90
4826;DHT22;2427;50.934;6.776;2023-06-22T06:45:21;23.90;99.90
4826;DHT22;2427;50.934;6.776;2023-06-22T06:47:48;24.10;99.90
4826;DHT22;2427;50.934;6.776;2023-06-22T06:50:14;24.20;99.90
4826;DHT22;2427;50.934;6.776;2023-06-22T06:52:40;24.30;99.90
4826;DHT22;2427;50.934;6.776;2023-06-22T06:55:07;24.40;99.90
4826;DHT22;2427;50.934;6.776;2023-06-22T06:57:36;24.50;99.90
4826;DHT22;2427;50.934;6.776;2023-06-22T07:00:06;24.40;99.90
4826;DHT22;2427;50.934;6.776;2023-06-22T07:02:35;24.50;99.90
4826;DHT22;2427;50.934;6.776;2023-06-22T07:05:01;24.60;99.90
4826;DHT22;2427;50.934;6.776;2023-06-22T07:07:29;24.60;99.90
4826;DHT22;2427;50.934;6.776;2023-06-22T07:09:54;24.60;99.90
4826;DHT22;2427;50.934;6.776;2023-06-22T07:12:20;24.60;99.90
4826;DHT22;2427;50.934;6.776;2023-06-22T07:14:46;24.60;99.90
4826;DHT22;2427;50.934;6.776;2023-06-22T07:17:12;24.60;99.90
4826;DHT22;2427;50.934;6.776;2023-06-22T07:19:37;24.70;99.90
4826;DHT22;2427;50.934;6.776;2023-06-22T07:22:03;24.80;99.90
4826;DHT22;2427;50.934;6.776;2023-06-22T07:24:29;24.90;99.90
4826;DHT22;2427;50.934;6.776;2023-06-22T07:26:54;24.90;99.90
4826;DHT22;2427;50.934;6.776;2023-06-22T07:29:20;24.90;99.90
4826;DHT22;2427;50.934;6.776;2023-06-22T07:31:50;25.00;99.90
4826;DHT22;2427;50.934;6.776;2023-06-22T07:34:17;24.90;99.90
4826;DHT22;2427;50.934;6.776;2023-06-22T07:36:43;25.00;99.90
4826;DHT22;2427;50.934;6.776;2023-06-22T07:39:09;25.10;99.90
4826;DHT22;2427;50.934;6.776;2023-06-22T07:41:35;25.10;99.90
4826;DHT22;2427;50.934;6.776;2023-06-22T07:44:01;25.10;99.90
4826;DHT22;2427;50.934;6.776;2023-06-22T07:46:27;24.90;99.90
4826;DHT22;2427;50.934;6.776;2023-06-22T07:48:55;24.90;99.90
4826;DHT22;2427;50.934;6.776;2023-06-22T07:51:21;24.90;99.90
4826;DHT22;2427;50.934;6.776;2023-06-22T07:53:47;24.90;99.90
4826;DHT22;2427;50.934;6.776;2023-06-22T07:56:13;25.00;99.90
4826;DHT22;2427;50.934;6.776;2023-06-22T07:58:39;25.00;99.90
4826;DHT22;2427;50.934;6.776;2023-06-22T08:01:05;25.00;99.90
4826;DHT22;2427;50.934;6.776;2023-06-22T08:03:31;25.00;99.90
4826;DHT22;2427;50.934;6.776;2023-06-22T08:05:57;25.20;99.90
4826;DHT22;2427;50.934;6.776;2023-06-22T08:08:23;25.30;99.90
4826;DHT22;2427;50.934;6.776;2023-06-22T08:10:49;25.40;99.90
4826;DHT22;2427;50.934;6.776;2023-06-22T08:13:14;25.50;99.90
4826;DHT22;2427;50.934;6.776;2023-06-22T08:15:40;25.60;99.90
4826;DHT22;2427;50.934;6.776;2023-06-22T08:18:06;25.70;99.90
4826;DHT22;2427;50.934;6.776;2023-06-22T08:20:31;25.80;99.90
4826;DHT22;2427;50.934;6.776;2023-06-22T08:22:57;25.90;99.90
4826;DHT22;2427;50.934;6.776;2023-06-22T08:25:26;26.10;99.90
4826;DHT22;2427;50.934;6.776;2023-06-22T08:27:51;26.30;99.90
4826;DHT22;2427;50.934;6.776;2023-06-22T08:30:17;26.40;99.90
4826;DHT22;2427;50.934;6.776;2023-06-22T08:32:44;26.50;99.90
4826;DHT22;2427;50.934;6.776;2023-06-22T08:35:09;26.60;99.90
4826;DHT22;2427;50.934;6.776;2023-06-22T08:37:36;26.70;99.90
4826;DHT22;2427;50.934;6.776;2023-06-22T08:40:06;26.70;99.90
4826;DHT22;2427;50.934;6.776;2023-06-22T08:42:36;26.70;99.90
4826;DHT22;2427;50.934;6.776;2023-06-22T08:45:02;26.80;99.90
4826;DHT22;2427;50.934;6.776;2023-06-22T08:47:28;27.00;99.90
4826;DHT22;2427;50.934;6.776;2023-06-22T08:49:54;27.30;99.90
4826;DHT22;2427;50.934;6.776;2023-06-22T08:52:19;27.60;99.90
4826;DHT22;2427;50.934;6.776;2023-06-22T08:54:48;27.80;99.90
4826;DHT22;2427;50.934;6.776;2023-06-22T08:57:13;28.00;99.90
4826;DHT22;2427;50.934;6.776;2023-06-22T08:59:40;28.20;99.90
4826;DHT22;2427;50.934;6.776;2023-06-22T09:02:06;28.50;99.90
4826;DHT22;2427;50.934;6.776;2023-06-22T09:04:31;28.60;99.90
4826;DHT22;2427;50.934;6.776;2023-06-22T09:07:03;28.70;99.90
4826;DHT22;2427;50.934;6.776;2023-06-22T09:09:29;28.60;99.90
4826;DHT22;2427;50.934;6.776;2023-06-22T09:11:54;28.40;99.90
4826;DHT22;2427;50.934;6.776;2023-06-22T09:14:20;28.40;99.90
4826;DHT22;2427;50.934;6.776;2023-06-22T09:16:45;28.50;99.90
4826;DHT22;2427;50.934;6.776;2023-06-22T09:19:11;28.50;99.90
4826;DHT22;2427;50.934;6.776;2023-06-22T09:21:37;28.70;99.90
4826;DHT22;2427;50.934;6.776;2023-06-22T09:24:03;28.80;99.90
4826;DHT22;2427;50.934;6.776;2023-06-22T09:26:29;28.80;99.90
4826;DHT22;2427;50.934;6.776;2023-06-22T09:28:54;28.80;99.90
4826;DHT22;2427;50.934;6.776;2023-06-22T09:31:20;28.70;99.90
4826;DHT22;2427;50.934;6.776;2023-06-22T09:33:52;28.70;99.90
4826;DHT22;2427;50.934;6.776;2023-06-22T09:36:22;28.70;99.90
4826;DHT22;2427;50.934;6.776;2023-06-22T09:38:48;28.80;99.90
4826;DHT22;2427;50.934;6.776;2023-06-22T09:41:14;28.90;99.90
4826;DHT22;2427;50.934;6.776;2023-06-22T09:43:40;29.10;99.90
4826;DHT22;2427;50.934;6.776;2023-06-22T09:46:05;29.40;99.90
4826;DHT22;2427;50.934;6.776;2023-06-22T09:48:32;29.70;99.90
4826;DHT22;2427;50.934;6.776;2023-06-22T09:50:58;30.00;99.90
4826;DHT22;2427;50.934;6.776;2023-06-22T09:53:23;30.20;99.90
4826;DHT22;2427;50.934;6.776;2023-06-22T09:55:49;30.00;99.90
4826;DHT22;2427;50.934;6.776;2023-06-22T09:58:14;29.90;99.90
4826;DHT22;2427;50.934;6.776;2023-06-22T10:00:40;29.50;99.90
4826;DHT22;2427;50.934;6.776;2023-06-22T10:03:07;29.20;99.90
4826;DHT22;2427;50.934;6.776;2023-06-22T10:05:32;28.90;99.90
4826;DHT22;2427;50.934;6.776;2023-06-22T10:07:58;28.60;99.90
4826;DHT22;2427;50.934;6.776;2023-06-22T10:10:23;28.30;99.90
4826;DHT22;2427;50.934;6.776;2023-06-22T10:12:56;28.10;99.90
4826;DHT22;2427;50.934;6.776;2023-06-22T10:15:22;27.80;99.90
4826;DHT22;2427;50.934;6.776;2023-06-22T10:17:48;27.60;99.90
4826;DHT22;2427;50.934;6.776;2023-06-22T10:20:14;27.40;99.90
4826;DHT22;2427;50.934;6.776;2023-06-22T10:22:41;27.10;99.90
4826;DHT22;2427;50.934;6.776;2023-06-22T10:25:08;26.30;99.90
4826;DHT22;2427;50.934;6.776;2023-06-22T10:27:33;25.40;99.90
4826;DHT22;2427;50.934;6.776;2023-06-22T10:29:59;24.60;99.90
4826;DHT22;2427;50.934;6.776;2023-06-22T10:32:25;23.90;1.00
4826;DHT22;2427;50.934;6.776;2023-06-22T10:34:50;23.30;1.00
4826;DHT22;2427;50.934;6.776;2023-06-22T10:37:16;22.90;1.00
4826;DHT22;2427;50.934;6.776;2023-06-22T10:39:41;22.60;99.90
4826;DHT22;2427;50.934;6.776;2023-06-22T10:42:07;22.30;99.90
4826;DHT22;2427;50.934;6.776;2023-06-22T10:44:33;22.20;1.00
4826;DHT22;2427;50.934;6.776;2023-06-22T10:46:58;22.00;99.90
4826;DHT22;2427;50.934;6.776;2023-06-22T10:49:24;21.90;99.90
4826;DHT22;2427;50.934;6.776;2023-06-22T10:51:49;21.90;99.90
4826;DHT22;2427;50.934;6.776;2023-06-22T10:54:15;21.80;1.00
4826;DHT22;2427;50.934;6.776;2023-06-22T10:56:43;21.80;2.80
4826;DHT22;2427;50.934;6.776;2023-06-22T10:59:09;21.80;99.90
4826;DHT22;2427;50.934;6.776;2023-06-22T11:01:34;21.80;12.50
4826;DHT22;2427;50.934;6.776;2023-06-22T11:04:00;21.80;99.90
4826;DHT22;2427;50.934;6.776;2023-06-22T11:06:25;21.80;99.90
4826;DHT22;2427;50.934;6.776;2023-06-22T11:08:51;21.90;99.90
4826;DHT22;2427;50.934;6.776;2023-06-22T11:11:17;22.00;99.90
4826;DHT22;2427;50.934;6.776;2023-06-22T11:13:43;22.00;99.90
4826;DHT22;2427;50.934;6.776;2023-06-22T11:16:09;22.10;99.90
4826;DHT22;2427;50.934;6.776;2023-06-22T11:18:35;22.20;99.90
4826;DHT22;2427;50.934;6.776;2023-06-22T11:21:01;22.20;99.90
4826;DHT22;2427;50.934;6.776;2023-06-22T11:23:26;22.20;99.90
4826;DHT22;2427;50.934;6.776;2023-06-22T11:25:53;22.30;99.90
4826;DHT22;2427;50.934;6.776;2023-06-22T11:28:19;22.20;99.90
4826;DHT22;2427;50.934;6.776;2023-06-22T11:30:44;22.20;99.90
4826;DHT22;2427;50.934;6.776;2023-06-22T11:33:10;22.30;99.90
4826;DHT22;2427;50.934;6.776;2023-06-22T11:35:35;22.50;99.90
4826;DHT22;2427;50.934;6.776;2023-06-22T11:38:01;22.80;99.90
4826;DHT22;2427;50.934;6.776;2023-06-22T11:40:28;23.20;99.90
4826;DHT22;2427;50.934;6.776;2023-06-22T11:42:54;23.40;99.90
4826;DHT22;2427;50.934;6.776;2023-06-22T11:45:19;23.50;99.90
4826;DHT22;2427;50.934;6.776;2023-06-22T11:47:45;23.40;99.90
4826;DHT22;2427;50.934;6.776;2023-06-22T11:50:11;23.20;99.90
4826;DHT22;2427;50.934;6.776;2023-06-22T11:52:37;23.20;99.90
4826;DHT22;2427;50.934;6.776;2023-06-22T11:55:03;23.10;99.90
4826;DHT22;2427;50.934;6.776;2023-06-22T11:57:32;23.00;99.90
4826;DHT22;2427;50.934;6.776;2023-06-22T11:59:58;23.10;99.90
4826;DHT22;2427;50.934;6.776;2023-06-22T12:02:24;23.20;99.90
4826;DHT22;2427;50.934;6.776;2023-06-22T12:04:49;23.40;99.90
4826;DHT22;2427;50.934;6.776;2023-06-22T12:07:18;23.70;99.90
4826;DHT22;2427;50.934;6.776;2023-06-22T12:09:43;24.00;99.90
4826;DHT22;2427;50.934;6.776;2023-06-22T12:12:09;24.20;99.90
4826;DHT22;2427;50.934;6.776;2023-06-22T12:14:35;24.30;99.90
4826;DHT22;2427;50.934;6.776;2023-06-22T12:17:01;24.10;99.90
4826;DHT22;2427;50.934;6.776;2023-06-22T12:19:26;24.20;99.90
4826;DHT22;2427;50.934;6.776;2023-06-22T12:21:52;24.40;99.90
4826;DHT22;2427;50.934;6.776;2023-06-22T12:24:17;24.50;99.90
4826;DHT22;2427;50.934;6.776;2023-06-22T12:26:43;24.60;99.90
4826;DHT22;2427;50.934;6.776;2023-06-22T12:29:09;24.70;68.80
4826;DHT22;2427;50.934;6.776;2023-06-22T12:31:36;24.80;29.30
4826;DHT22;2427;50.934;6.776;2023-06-22T12:34:02;24.80;1.00
4826;DHT22;2427;50.934;6.776;2023-06-22T12:36:27;24.80;1.00
4826;DHT22;2427;50.934;6.776;2023-06-22T12:38:53;24.80;1.00
4826;DHT22;2427;50.934;6.776;2023-06-22T12:41:19;25.10;1.00
4826;DHT22;2427;50.934;6.776;2023-06-22T12:43:46;25.50;1.00
4826;DHT22;2427;50.934;6.776;2023-06-22T12:46:12;25.80;1.00
4826;DHT22;2427;50.934;6.776;2023-06-22T12:48:37;26.10;99.90
4826;DHT22;2427;50.934;6.776;2023-06-22T12:51:07;26.20;99.90
4826;DHT22;2427;50.934;6.776;2023-06-22T12:53:34;26.20;99.90
4826;DHT22;2427;50.934;6.776;2023-06-22T12:55:59;26.30;99.90
4826;DHT22;2427;50.934;6.776;2023-06-22T12:58:25;26.20;13.90
4826;DHT22;2427;50.934;6.776;2023-06-22T13:00:50;26.30;1.00
4826;DHT22;2427;50.934;6.776;2023-06-22T13:03:16;26.50;1.00
4826;DHT22;2427;50.934;6.776;2023-06-22T13:05:41;26.90;1.00
4826;DHT22;2427;50.934;6.776;2023-06-22T13:08:07;27.30;99.90
4826;DHT22;2427;50.934;6.776;2023-06-22T13:10:33;27.80;1.00
4826;DHT22;2427;50.934;6.776;2023-06-22T13:12:59;27.90;1.00
4826;DHT22;2427;50.934;6.776;2023-06-22T13:15:27;28.00;1.00
4826;DHT22;2427;50.934;6.776;2023-06-22T13:17:53;28.00;1.00
4826;DHT22;2427;50.934;6.776;2023-06-22T13:20:19;28.20;1.00
4826;DHT22;2427;50.934;6.776;2023-06-22T13:22:45;28.00;1.00
4826;DHT22;2427;50.934;6.776;2023-06-22T13:25:10;28.00;1.00
4826;DHT22;2427;50.934;6.776;2023-06-22T13:27:39;28.00;1.00
4826;DHT22;2427;50.934;6.776;2023-06-22T13:30:05;27.90;1.00
4826;DHT22;2427;50.934;6.776;2023-06-22T13:32:30;27.80;1.00
4826;DHT22;2427;50.934;6.776;2023-06-22T13:34:56;27.60;1.00
4826;DHT22;2427;50.934;6.776;2023-06-22T13:37:21;27.60;1.00
4826;DHT22;2427;50.934;6.776;2023-06-22T13:39:47;27.90;1.00
4826;DHT22;2427;50.934;6.776;2023-06-22T13:42:13;28.30;1.00
4826;DHT22;2427;50.934;6.776;2023-06-22T13:44:38;28.90;1.00
4826;DHT22;2427;50.934;6.776;2023-06-22T13:47:04;29.40;99.90
4826;DHT22;2427;50.934;6.776;2023-06-22T13:49:30;30.10;99.90
4826;DHT22;2427;50.934;6.776;2023-06-22T13:51:56;30.40;99.90
4826;DHT22;2427;50.934;6.776;2023-06-22T13:54:21;30.80;99.90
4826;DHT22;2427;50.934;6.776;2023-06-22T13:56:47;31.20;99.90
4826;DHT22;2427;50.934;6.776;2023-06-22T13:59:12;31.60;99.90
4826;DHT22;2427;50.934;6.776;2023-06-22T14:01:38;31.70;99.90
4826;DHT22;2427;50.934;6.776;2023-06-22T14:04:08;31.80;99.90
4826;DHT22;2427;50.934;6.776;2023-06-22T14:06:34;31.20;99.90
4826;DHT22;2427;50.934;6.776;2023-06-22T14:08:59;30.40;99.90
4826;DHT22;2427;50.934;6.776;2023-06-22T14:11:25;29.80;99.90
4826;DHT22;2427;50.934;6.776;2023-06-22T14:13:51;29.30;99.90
4826;DHT22;2427;50.934;6.776;2023-06-22T14:16:17;28.90;99.90
4826;DHT22;2427;50.934;6.776;2023-06-22T14:18:42;28.60;99.90
4826;DHT22;2427;50.934;6.776;2023-06-22T14:21:08;28.30;99.90
4826;DHT22;2427;50.934;6.776;2023-06-22T14:23:34;28.40;99.90
4826;DHT22;2427;50.934;6.776;2023-06-22T14:25:59;28.20;99.90
4826;DHT22;2427;50.934;6.776;2023-06-22T14:28:25;28.00;99.90
4826;DHT22;2427;50.934;6.776;2023-06-22T14:30:51;27.80;99.90
4826;DHT22;2427;50.934;6.776;2023-06-22T14:33:16;27.80;99.90
4826;DHT22;2427;50.934;6.776;2023-06-22T14:35:42;27.60;99.90
4826;DHT22;2427;50.934;6.776;2023-06-22T14:38:07;27.50;1.00
4826;DHT22;2427;50.934;6.776;2023-06-22T14:40:33;27.40;1.00
4826;DHT22;2427;50.934;6.776;2023-06-22T14:42:58;27.40;1.00
4826;DHT22;2427;50.934;6.776;2023-06-22T14:45:24;27.80;1.00
4826;DHT22;2427;50.934;6.776;2023-06-22T14:47:50;27.90;99.90
4826;DHT22;2427;50.934;6.776;2023-06-22T14:50:15;28.10;99.90
4826;DHT22;2427;50.934;6.776;2023-06-22T14:52:41;28.00;99.90
4826;DHT22;2427;50.934;6.776;2023-06-22T14:55:07;27.90;99.90
4826;DHT22;2427;50.934;6.776;2023-06-22T14:57:33;27.60;1.00
4826;DHT22;2427;50.934;6.776;2023-06-22T14:59:58;27.20;1.00
4826;DHT22;2427;50.934;6.776;2023-06-22T15:02:25;27.00;1.00
4826;DHT22;2427;50.934;6.776;2023-06-22T15:04:50;27.00;1.00
4826;DHT22;2427;50.934;6.776;2023-06-22T15:07:18;26.80;1.00
4826;DHT22;2427;50.934;6.776;2023-06-22T15:09:45;26.60;1.00
4826;DHT22;2427;50.934;6.776;2023-06-22T15:12:10;26.50;1.00
4826;DHT22;2427;50.934;6.776;2023-06-22T15:14:43;26.30;1.00
4826;DHT22;2427;50.934;6.776;2023-06-22T15:17:09;26.10;1.00
4826;DHT22;2427;50.934;6.776;2023-06-22T15:19:35;25.90;1.00
4826;DHT22;2427;50.934;6.776;2023-06-22T15:22:03;25.70;1.00
4826;DHT22;2427;50.934;6.776;2023-06-22T15:24:29;25.50;99.90
4826;DHT22;2427;50.934;6.776;2023-06-22T15:26:55;25.00;1.00
4826;DHT22;2427;50.934;6.776;2023-06-22T15:29:20;24.40;99.90
4826;DHT22;2427;50.934;6.776;2023-06-22T15:31:46;23.90;1.00
4826;DHT22;2427;50.934;6.776;2023-06-22T15:34:13;23.60;99.90
4826;DHT22;2427;50.934;6.776;2023-06-22T15:36:39;23.30;1.00
4826;DHT22;2427;50.934;6.776;2023-06-22T15:39:04;22.90;18.30
4826;DHT22;2427;50.934;6.776;2023-06-22T15:41:30;22.60;1.00
4826;DHT22;2427;50.934;6.776;2023-06-22T15:43:56;22.50;99.90
4826;DHT22;2427;50.934;6.776;2023-06-22T15:46:22;22.40;99.90
4826;DHT22;2427;50.934;6.776;2023-06-22T15:48:47;22.20;99.90
4826;DHT22;2427;50.934;6.776;2023-06-22T15:51:13;22.10;99.90
4826;DHT22;2427;50.934;6.776;2023-06-22T15:53:40;22.00;99.90
4826;DHT22;2427;50.934;6.776;2023-06-22T15:56:05;21.90;99.90
4826;DHT22;2427;50.934;6.776;2023-06-22T15:58:38;21.90;99.90
4826;DHT22;2427;50.934;6.776;2023-06-22T16:01:04;21.80;99.90
4826;DHT22;2427;50.934;6.776;2023-06-22T16:03:31;21.70;99.90
4826;DHT22;2427;50.934;6.776;2023-06-22T16:05:57;21.60;99.90
4826;DHT22;2427;50.934;6.776;2023-06-22T16:08:23;21.50;99.90
4826;DHT22;2427;50.934;6.776;2023-06-22T16:10:51;21.50;99.90
4826;DHT22;2427;50.934;6.776;2023-06-22T16:13:16;21.50;99.90
4826;DHT22;2427;50.934;6.776;2023-06-22T16:15:42;21.50;99.90
4826;DHT22;2427;50.934;6.776;2023-06-22T16:18:07;21.50;99.90